Flight Track Log - Related Links

Times and Time Zones

All times are in EDT time to prevent confusion due to time zone crossing. See the CES5696 flight status page for this flight to view local times or setup timezone preferences in your user account.

Time Position Orientation Groundspeed Altitude Reporting Facility
EDT Latitude Longitude Course Direction KTS MPH feet Rate Location/Type
Sun 10:42:00 AM 36.8388 113.9530 31° Northeast  Level Estimated
Sun 10:43:00 AM 36.9296 114.0229 32° Northeast  Level Estimated
Sun 10:44:00 AM 37.0203 114.0930 32° Northeast  Level Estimated
Sun 10:45:00 AM 37.1109 114.1633 32° Northeast  Level Estimated
Sun 10:46:00 AM 37.2015 114.2337 32° Northeast  Level Estimated
Sun 10:47:00 AM 37.2921 114.3044 32° Northeast  Level Estimated
Sun 10:48:00 AM 37.3826 114.3751 32° Northeast  Level Estimated
Sun 10:49:00 AM 37.4731 114.4461 32° Northeast  Level Estimated
Sun 10:50:00 AM 37.5635 114.5172 32° Northeast  Level Estimated
Sun 10:51:00 AM 37.6539 114.5885 32° Northeast  Level Estimated
Sun 10:52:00 AM 37.7443 114.6600 32° Northeast  Level Estimated
Sun 10:53:00 AM 37.8346 114.7317 32° Northeast  Level Estimated
Sun 10:54:00 AM 37.8988 114.7827 32° Northeast  Level Estimated
Sun 10:55:00 AM 37.9629 114.8338 32° Northeast  Level Estimated
Sun 10:56:00 AM 38.0271 114.8850 32° Northeast  Level Estimated
Sun 10:57:00 AM 38.0912 114.9363 32° Northeast  Level Estimated
Sun 10:58:00 AM 38.1552 114.9877 32° Northeast  Level Estimated
Sun 10:59:00 AM 38.2193 115.0392 32° Northeast  Level Estimated
Sun 11:00:00 AM 38.2833 115.0908 32° Northeast  Level Estimated
Sun 11:01:00 AM 38.3474 115.1425 32° Northeast  Level Estimated
Sun 11:02:00 AM 38.4114 115.1942 32° Northeast  Level Estimated
Sun 11:03:00 AM 38.4753 115.2461 32° Northeast  Level Estimated
Sun 11:04:00 AM 38.5393 115.2980 32° Northeast  Level Estimated
Sun 11:05:00 AM 38.6032 115.3501 32° Northeast  Level Estimated
Sun 11:06:00 AM 38.6671 115.4022 32° Northeast  Level Estimated
Sun 11:07:00 AM 38.7310 115.4544 33° Northeast  Level Estimated
Sun 11:08:00 AM 38.7948 115.5067 33° Northeast  Level Estimated
Sun 11:09:00 AM 38.8587 115.5591 33° Northeast  Level Estimated
Sun 11:10:00 AM 38.9225 115.6116 33° Northeast  Level Estimated
Sun 11:11:00 AM 38.9863 115.6642 33° Northeast  Level Estimated
Sun 11:12:00 AM 39.0500 115.7169 33° Northeast  Level Estimated
Sun 11:13:00 AM 39.1137 115.7697 33° Northeast  Level Estimated
Sun 11:14:00 AM 39.1775 115.8226 33° Northeast  Level Estimated
Sun 11:15:00 AM 39.2411 115.8756 33° Northeast  Level Estimated
Sun 11:16:00 AM 39.3048 115.9286 33° Northeast  Level Estimated
Sun 11:17:00 AM 39.3685 115.9818 33° Northeast  Level Estimated
Sun 11:18:00 AM 39.4321 116.0351 33° Northeast  Level Estimated
Sun 11:19:00 AM 39.4957 116.0885 33° Northeast  Level Estimated
Sun 11:20:00 AM 39.5882 116.1664 33° Northeast  Level Estimated
Sun 11:21:00 AM 39.6807 116.2444 33° Northeast  Level Estimated
Sun 11:22:00 AM 39.7732 116.3227 33° Northeast  Level Estimated
Sun 11:23:00 AM 39.8656 116.4013 33° Northeast  Level Estimated
Sun 11:24:00 AM 39.9579 116.4800 33° Northeast  Level Estimated
Sun 11:25:00 AM 40.0502 116.5589 33° Northeast  Level Estimated
Sun 11:26:00 AM 40.0801 116.5846 33° Northeast  Level Estimated
Sun 11:27:00 AM 40.0801 116.5846 North  Level Estimated
Sun 11:28:00 AM 40.0801 116.5846 North  Level Estimated
Sun 11:29:00 AM 40.0801 116.5846 North  Level Estimated
Sun 11:30:00 AM 40.0801 116.5846 North  Level Estimated
Sun 11:31:00 AM 40.0801 116.5846 North  Level Estimated
Sun 11:32:00 AM 40.0801 116.5846 North  Level Estimated

Login

Don't have an account? Register now (free) for customized features, flight alerts, and more!